createdAt,value
2023-02-02T00:00:00.387Z,14.3
2023-02-02T00:05:00.392Z,18.3
2023-02-02T00:10:00.396Z,15.5
2023-02-02T00:15:00.401Z,20.0
2023-02-02T00:20:00.410Z,13.8
2023-02-02T00:25:00.386Z,12.8
2023-02-02T00:30:00.402Z,13.1
2023-02-02T00:35:00.400Z,15.0
2023-02-02T00:40:00.394Z,20.8
2023-02-02T00:45:00.412Z,13.4
2023-02-02T00:50:00.396Z,13.4
2023-02-02T00:55:00.408Z,22.0
2023-02-02T01:00:00.387Z,21.1
2023-02-02T01:05:00.408Z,14.3
2023-02-02T01:10:00.411Z,16.2
2023-02-02T01:15:00.398Z,16.1
2023-02-02T01:20:00.399Z,0.0
2023-02-02T01:25:00.400Z,16.0
2023-02-02T01:30:00.429Z,16.4
2023-02-02T01:35:00.400Z,16.4
2023-02-02T01:40:00.396Z,16.8
2023-02-02T01:45:00.396Z,17.3
2023-02-02T01:50:00.404Z,20.5
2023-02-02T01:55:00.410Z,13.3
2023-02-02T02:00:00.394Z,12.9
2023-02-02T02:05:00.392Z,13.5
2023-02-02T02:10:00.401Z,14.8
2023-02-02T02:15:00.406Z,11.8
2023-02-02T02:20:00.434Z,10.7
2023-02-02T02:25:00.405Z,11.2
2023-02-02T02:30:00.399Z,15.1
2023-02-02T02:35:00.404Z,12.6
2023-02-02T02:40:00.396Z,13.1
2023-02-02T02:45:00.391Z,10.7
2023-02-02T02:50:00.422Z,9.2
2023-02-02T02:55:00.417Z,8.9
2023-02-02T03:00:00.415Z,8.0
2023-02-02T03:05:00.417Z,6.7
2023-02-02T03:10:00.397Z,11.6
2023-02-02T03:15:00.410Z,8.8
2023-02-02T03:20:00.430Z,6.7
2023-02-02T03:25:00.417Z,6.4
2023-02-02T03:30:02.540Z,6.0
2023-02-02T03:35:00.417Z,9.3
2023-02-02T03:40:00.413Z,7.1
2023-02-02T03:45:00.417Z,9.0
2023-02-02T03:50:00.403Z,9.1
2023-02-02T03:55:00.410Z,10.2
2023-02-02T04:00:00.407Z,18.0
2023-02-02T04:05:00.407Z,21.3
2023-02-02T04:10:00.445Z,15.8
2023-02-02T04:15:00.405Z,16.3
2023-02-02T04:20:00.405Z,16.1
2023-02-02T04:25:00.412Z,19.3
2023-02-02T04:30:00.426Z,20.0
2023-02-02T04:35:00.409Z,27.3
2023-02-02T04:40:00.420Z,14.1
2023-02-02T04:45:00.413Z,24.5
2023-02-02T04:50:00.402Z,17.0
2023-02-02T04:55:00.434Z,20.6
2023-02-02T05:00:00.409Z,20.2
2023-02-02T05:05:00.405Z,19.3
2023-02-02T05:10:00.427Z,20.3
2023-02-02T05:15:00.403Z,23.3
2023-02-02T05:20:00.395Z,17.9
2023-02-02T05:25:00.406Z,16.1
2023-02-02T05:30:00.395Z,15.8
2023-02-02T05:35:00.415Z,23.2
2023-02-02T05:40:00.407Z,18.2
2023-02-02T05:45:00.399Z,17.7
2023-02-02T05:50:00.398Z,18.9
2023-02-02T05:55:00.398Z,18.6
2023-02-02T06:00:00.427Z,18.4
2023-02-02T06:05:00.414Z,15.9
2023-02-02T06:10:00.419Z,17.7
2023-02-02T06:15:00.399Z,20.4
2023-02-02T06:20:00.411Z,20.5
2023-02-02T06:25:00.401Z,17.7
2023-02-02T06:30:00.399Z,22.6
2023-02-02T06:35:00.419Z,20.6
2023-02-02T06:40:00.390Z,20.6
2023-02-02T06:45:00.417Z,15.3
2023-02-02T06:50:00.398Z,17.1
2023-02-02T06:55:00.408Z,18.5
2023-02-02T07:00:00.433Z,19.7
2023-02-02T07:05:00.390Z,16.1
2023-02-02T07:10:00.402Z,16.8
2023-02-02T07:15:00.416Z,14.3
2023-02-02T07:20:00.431Z,19.2
2023-02-02T07:25:00.415Z,13.4
2023-02-02T07:30:00.434Z,17.1
2023-02-02T07:35:00.398Z,18.9
2023-02-02T07:40:00.442Z,12.8
2023-02-02T07:45:00.433Z,18.7
2023-02-02T07:50:00.420Z,18.2
2023-02-02T07:55:13.982Z,16.2
2023-02-02T08:00:00.469Z,13.4
2023-02-02T08:05:00.413Z,14.5
2023-02-02T08:10:00.431Z,12.3
2023-02-02T08:15:00.417Z,11.8
2023-02-02T08:20:00.407Z,15.6
2023-02-02T08:25:00.417Z,9.6
2023-02-02T08:30:00.420Z,13.0
2023-02-02T08:35:00.409Z,13.1
2023-02-02T08:40:00.580Z,19.5
2023-02-02T08:46:03.353Z,13.5
2023-02-02T08:50:00.409Z,12.2
2023-02-02T08:55:00.439Z,14.1
2023-02-02T09:00:00.413Z,15.5
2023-02-02T09:05:00.408Z,17.4
2023-02-02T09:10:00.396Z,19.3
2023-02-02T09:15:00.408Z,15.1
2023-02-02T09:20:00.427Z,23.1
2023-02-02T09:25:00.403Z,17.5
2023-02-02T09:30:00.398Z,20.6
2023-02-02T09:35:00.405Z,19.0
2023-02-02T09:40:00.462Z,22.5
2023-02-02T09:45:00.448Z,22.0
2023-02-02T09:50:00.399Z,14.2
2023-02-02T09:55:00.436Z,17.7
2023-02-02T10:00:00.431Z,20.7
2023-02-02T10:05:00.419Z,18.8
2023-02-02T10:10:00.411Z,22.9
2023-02-02T10:15:00.843Z,17.8
2023-02-02T10:20:00.492Z,26.4
2023-02-02T10:25:01.142Z,17.4
2023-02-02T10:30:00.425Z,19.2
2023-02-02T10:35:12.564Z,12.4
2023-02-02T10:40:00.444Z,14.0
2023-02-02T10:45:00.421Z,13.6
2023-02-02T10:50:00.413Z,18.2
2023-02-02T10:55:02.809Z,22.4
2023-02-02T11:00:00.414Z,16.1
2023-02-02T11:05:00.433Z,14.7
2023-02-02T11:10:00.413Z,14.1
2023-02-02T11:15:00.440Z,11.4
2023-02-02T11:20:00.490Z,16.2
2023-02-02T11:25:00.418Z,16.0
2023-02-02T11:30:00.419Z,15.9
2023-02-02T11:35:00.412Z,17.6
2023-02-02T11:40:00.419Z,14.4
2023-02-02T11:45:00.428Z,20.2
2023-02-02T11:50:00.452Z,22.7
2023-02-02T11:55:00.395Z,15.0
2023-02-02T12:00:00.424Z,18.8
2023-02-02T12:05:00.446Z,18.6
2023-02-02T12:10:00.428Z,12.8
2023-02-02T12:15:00.434Z,11.4
2023-02-02T12:20:00.428Z,20.7
2023-02-02T12:25:00.414Z,14.7
2023-02-02T12:30:00.497Z,11.5
2023-02-02T12:35:01.135Z,14.9
2023-02-02T12:40:00.474Z,12.5
2023-02-02T12:45:00.456Z,18.7
2023-02-02T12:50:00.559Z,10.3
2023-02-02T12:55:00.435Z,20.4
2023-02-02T13:00:00.437Z,11.4
2023-02-02T13:05:00.415Z,14.6
2023-02-02T13:10:00.421Z,21.7
2023-02-02T13:15:00.406Z,20.4
2023-02-02T13:20:00.395Z,14.1
2023-02-02T13:25:01.308Z,16.4
2023-02-02T13:30:00.415Z,13.9
2023-02-02T13:35:00.412Z,11.0
2023-02-02T13:40:00.392Z,10.4
2023-02-02T13:45:00.396Z,14.6
2023-02-02T13:50:00.398Z,11.3
2023-02-02T13:55:00.414Z,11.4
2023-02-02T14:00:00.384Z,11.6
2023-02-02T14:05:00.427Z,15.2
2023-02-02T14:10:00.405Z,12.7
2023-02-02T14:15:00.412Z,14.7
2023-02-02T14:20:00.407Z,8.8
2023-02-02T14:25:00.468Z,8.9
2023-02-02T14:30:00.379Z,11.1
2023-02-02T14:35:00.431Z,8.7
2023-02-02T14:40:00.391Z,10.9
2023-02-02T14:45:00.393Z,10.0
2023-02-02T14:50:00.373Z,7.1
2023-02-02T14:55:00.383Z,4.2
2023-02-02T15:00:01.589Z,5.0
2023-02-02T15:05:00.385Z,8.5
2023-02-02T15:10:00.382Z,4.4
2023-02-02T15:15:00.373Z,4.8
2023-02-02T15:20:00.418Z,3.1
2023-02-02T15:25:00.395Z,4.4
2023-02-02T15:30:00.395Z,2.8
2023-02-02T15:35:00.392Z,2.7
2023-02-02T15:40:00.413Z,2.7
2023-02-02T15:45:00.397Z,2.0
2023-02-02T15:50:00.395Z,1.8
2023-02-02T15:55:00.452Z,2.1
2023-02-02T16:00:00.601Z,2.4
2023-02-02T16:05:00.399Z,4.1
2023-02-02T16:10:00.469Z,4.1
2023-02-02T16:15:00.415Z,3.6
2023-02-02T16:20:00.410Z,3.5
2023-02-02T16:25:00.382Z,4.1
2023-02-02T16:30:00.464Z,5.9
2023-02-02T16:35:00.391Z,5.9
2023-02-02T16:40:00.416Z,4.2
2023-02-02T16:45:00.395Z,7.4
2023-02-02T16:50:00.410Z,7.4
2023-02-02T16:55:00.413Z,8.5
2023-02-02T17:00:00.403Z,16.1
2023-02-02T17:05:00.380Z,13.6
2023-02-02T17:10:00.400Z,11.8
2023-02-02T17:15:00.406Z,12.2
2023-02-02T17:20:00.402Z,11.8
2023-02-02T17:25:00.411Z,12.1
2023-02-02T17:30:00.405Z,13.1
2023-02-02T17:35:00.403Z,15.9
2023-02-02T17:40:00.421Z,16.1
2023-02-02T17:45:00.418Z,13.1
2023-02-02T17:50:00.388Z,15.4
2023-02-02T17:55:00.419Z,18.0
2023-02-02T18:00:00.376Z,18.7
2023-02-02T18:05:00.403Z,15.2
2023-02-02T18:10:00.383Z,12.9
2023-02-02T18:15:00.435Z,14.2
2023-02-02T18:20:00.395Z,18.1
2023-02-02T18:25:00.403Z,20.6
2023-02-02T18:30:00.524Z,21.6
2023-02-02T18:35:00.394Z,18.7
2023-02-02T18:40:00.406Z,20.1
2023-02-02T18:45:00.388Z,19.7
2023-02-02T18:50:00.397Z,18.7
2023-02-02T18:55:00.404Z,18.3
2023-02-02T19:00:00.378Z,18.8
2023-02-02T19:05:00.386Z,20.4
2023-02-02T19:10:00.386Z,20.0
2023-02-02T19:15:00.413Z,23.6
2023-02-02T19:20:00.381Z,20.3
2023-02-02T19:25:00.404Z,19.7
2023-02-02T19:30:00.465Z,17.8
2023-02-02T19:35:00.386Z,22.6
2023-02-02T19:45:00.407Z,22.3
2023-02-02T19:50:00.435Z,18.8
2023-02-02T19:55:00.391Z,25.0
2023-02-02T20:00:00.365Z,24.4
2023-02-02T20:05:00.366Z,18.1
2023-02-02T20:10:00.368Z,0.0
2023-02-02T20:15:00.369Z,21.8
2023-02-02T20:20:00.369Z,24.0
2023-02-02T20:25:00.363Z,19.8
2023-02-02T20:30:00.359Z,21.0
2023-02-02T20:35:00.363Z,16.1
2023-02-02T20:40:00.361Z,22.4
2023-02-02T20:45:00.366Z,19.0
2023-02-02T20:50:00.389Z,22.9
2023-02-02T20:55:00.359Z,17.7
2023-02-02T21:00:00.381Z,16.9
2023-02-02T21:05:00.373Z,21.1
2023-02-02T21:10:00.362Z,17.1
2023-02-02T21:15:00.364Z,18.0
2023-02-02T21:20:00.370Z,20.4
2023-02-02T21:25:00.374Z,18.9
2023-02-02T21:30:00.356Z,24.9
2023-02-02T21:35:00.372Z,12.5
2023-02-02T21:40:00.369Z,14.3
2023-02-02T21:45:00.354Z,17.9
2023-02-02T21:50:00.380Z,14.2
2023-02-02T21:55:00.363Z,16.0
2023-02-02T22:00:00.355Z,17.3
2023-02-02T22:05:00.372Z,16.7
2023-02-02T22:10:00.358Z,14.8
2023-02-02T22:15:00.354Z,11.9
2023-02-02T22:20:00.365Z,16.4
2023-02-02T22:25:00.377Z,19.4
2023-02-02T22:30:00.420Z,13.4
2023-02-02T22:35:00.372Z,13.8
2023-02-02T22:40:00.942Z,18.1
2023-02-02T22:45:00.365Z,16.4
2023-02-02T22:50:00.366Z,18.2
2023-02-02T22:55:00.447Z,9.1
2023-02-02T23:00:00.354Z,12.5
2023-02-02T23:05:00.351Z,9.0
2023-02-02T23:10:00.355Z,12.2
2023-02-02T23:15:00.358Z,15.1
2023-02-02T23:20:00.361Z,11.7
2023-02-02T23:25:00.358Z,11.7
2023-02-02T23:30:00.373Z,12.9
2023-02-02T23:35:00.407Z,10.4
2023-02-02T23:40:00.404Z,10.0
2023-02-02T23:45:00.374Z,10.9
2023-02-02T23:50:00.354Z,11.3
2023-02-02T23:55:00.422Z,13.6
